sensor_id;sensor_type;location;lat;lon;timestamp;pressure;altitude;pressure_sealevel;temperature;humidity
84607;BME280;74838;47.984;7.842;2024-01-30T00:00:13;99926.63;;;6.33;72.14
84607;BME280;74838;47.984;7.842;2024-01-30T00:02:40;99926.81;;;6.32;71.85
84607;BME280;74838;47.984;7.842;2024-01-30T00:05:10;99911.13;;;6.24;71.92
84607;BME280;74838;47.984;7.842;2024-01-30T00:07:37;99921.72;;;6.30;71.93
84607;BME280;74838;47.984;7.842;2024-01-30T00:10:06;99915.44;;;6.31;72.08
84607;BME280;74838;47.984;7.842;2024-01-30T00:12:33;99919.47;;;6.27;71.84
84607;BME280;74838;47.984;7.842;2024-01-30T00:14:59;99917.22;;;6.24;73.03
84607;BME280;74838;47.984;7.842;2024-01-30T00:17:27;99915.94;;;6.20;73.02
84607;BME280;74838;47.984;7.842;2024-01-30T00:19:54;99916.94;;;6.19;73.05
84607;BME280;74838;47.984;7.842;2024-01-30T00:22:20;99917.88;;;6.12;73.07
84607;BME280;74838;47.984;7.842;2024-01-30T00:24:47;99901.59;;;6.09;72.02
84607;BME280;74838;47.984;7.842;2024-01-30T00:27:14;99920.97;;;6.16;73.39
84607;BME280;74838;47.984;7.842;2024-01-30T00:29:41;99924.34;;;6.10;72.83
84607;BME280;74838;47.984;7.842;2024-01-30T00:32:10;99923.63;;;6.16;71.74
84607;BME280;74838;47.984;7.842;2024-01-30T00:34:38;99928.88;;;6.16;72.00
84607;BME280;74838;47.984;7.842;2024-01-30T00:37:04;99928.06;;;6.15;72.01
84607;BME280;74838;47.984;7.842;2024-01-30T00:39:33;99915.03;;;6.14;72.04
84607;BME280;74838;47.984;7.842;2024-01-30T00:42:00;99920.97;;;6.16;72.43
84607;BME280;74838;47.984;7.842;2024-01-30T00:44:27;99927.59;;;6.12;72.65
84607;BME280;74838;47.984;7.842;2024-01-30T00:46:53;99924.78;;;6.13;73.11
84607;BME280;74838;47.984;7.842;2024-01-30T00:49:20;99920.81;;;6.03;72.42
84607;BME280;74838;47.984;7.842;2024-01-30T00:51:50;99928.63;;;6.11;72.32
84607;BME280;74838;47.984;7.842;2024-01-30T00:54:17;99920.31;;;6.14;71.92
84607;BME280;74838;47.984;7.842;2024-01-30T00:56:44;99926.63;;;6.13;72.13
84607;BME280;74838;47.984;7.842;2024-01-30T00:59:11;99918.69;;;6.13;72.43
84607;BME280;74838;47.984;7.842;2024-01-30T01:01:38;99919.59;;;6.19;71.71
84607;BME280;74838;47.984;7.842;2024-01-30T01:04:06;99915.88;;;6.14;72.41
84607;BME280;74838;47.984;7.842;2024-01-30T01:06:36;99920.97;;;6.16;72.58
84607;BME280;74838;47.984;7.842;2024-01-30T01:09:04;99921.16;;;6.14;72.23
84607;BME280;74838;47.984;7.842;2024-01-30T01:11:30;99870.47;;;5.83;72.34
84607;BME280;74838;47.984;7.842;2024-01-30T01:13:57;99921.53;;;6.11;72.18
84607;BME280;74838;47.984;7.842;2024-01-30T01:16:26;99923.53;;;6.09;71.91
84607;BME280;74838;47.984;7.842;2024-01-30T01:18:56;99926.63;;;6.13;71.51
84607;BME280;74838;47.984;7.842;2024-01-30T01:21:22;99913.69;;;6.18;70.63
84607;BME280;74838;47.984;7.842;2024-01-30T01:23:49;99917.75;;;6.20;70.52
84607;BME280;74838;47.984;7.842;2024-01-30T01:26:19;99889.78;;;6.05;71.40
84607;BME280;74838;47.984;7.842;2024-01-30T01:28:46;99884.88;;;6.02;72.07
84607;BME280;74838;47.984;7.842;2024-01-30T01:31:13;99911.34;;;6.08;72.49
84607;BME280;74838;47.984;7.842;2024-01-30T01:33:42;99916.25;;;6.11;73.11
84607;BME280;74838;47.984;7.842;2024-01-30T01:36:11;99918.53;;;6.00;73.37
84607;BME280;74838;47.984;7.842;2024-01-30T01:38:37;99919.75;;;5.97;73.35
84607;BME280;74838;47.984;7.842;2024-01-30T01:41:07;99914.03;;;5.94;74.13
84607;BME280;74838;47.984;7.842;2024-01-30T01:43:35;99918.66;;;5.92;72.84
84607;BME280;74838;47.984;7.842;2024-01-30T01:46:03;99918.03;;;5.90;73.72
84607;BME280;74838;47.984;7.842;2024-01-30T01:48:30;99914.50;;;5.83;73.50
84607;BME280;74838;47.984;7.842;2024-01-30T01:50:57;99905.31;;;5.79;74.64
84607;BME280;74838;47.984;7.842;2024-01-30T01:53:27;99901.44;;;5.75;74.60
84607;BME280;74838;47.984;7.842;2024-01-30T01:55:54;99895.19;;;5.68;74.50
84607;BME280;74838;47.984;7.842;2024-01-30T01:58:21;99899.47;;;5.69;74.58
84607;BME280;74838;47.984;7.842;2024-01-30T02:00:51;99898.78;;;5.75;74.52
84607;BME280;74838;47.984;7.842;2024-01-30T02:03:18;99904.25;;;5.74;74.59
84607;BME280;74838;47.984;7.842;2024-01-30T02:05:50;99900.88;;;5.65;73.88
84607;BME280;74838;47.984;7.842;2024-01-30T02:08:19;99893.31;;;5.62;74.66
84607;BME280;74838;47.984;7.842;2024-01-30T02:10:48;99901.75;;;5.72;75.04
84607;BME280;74838;47.984;7.842;2024-01-30T02:13:15;99880.84;;;5.56;74.35
84607;BME280;74838;47.984;7.842;2024-01-30T02:15:42;99894.22;;;5.69;73.85
84607;BME280;74838;47.984;7.842;2024-01-30T02:18:12;99890.31;;;5.65;74.10
84607;BME280;74838;47.984;7.842;2024-01-30T02:20:41;99908.59;;;5.81;73.70
84607;BME280;74838;47.984;7.842;2024-01-30T02:23:10;99902.56;;;5.73;73.42
84607;BME280;74838;47.984;7.842;2024-01-30T02:25:39;99907.22;;;5.71;73.79
84607;BME280;74838;47.984;7.842;2024-01-30T02:28:09;99913.97;;;5.59;73.49
84607;BME280;74838;47.984;7.842;2024-01-30T02:30:36;99911.59;;;5.64;72.73
84607;BME280;74838;47.984;7.842;2024-01-30T02:33:03;99916.13;;;5.70;72.97
84607;BME280;74838;47.984;7.842;2024-01-30T02:35:32;99907.84;;;5.73;72.14
84607;BME280;74838;47.984;7.842;2024-01-30T02:38:03;99901.63;;;5.74;72.57
84607;BME280;74838;47.984;7.842;2024-01-30T02:40:31;99896.59;;;5.64;72.76
84607;BME280;74838;47.984;7.842;2024-01-30T02:42:59;99911.03;;;5.68;74.09
84607;BME280;74838;47.984;7.842;2024-01-30T02:45:26;99912.59;;;5.77;72.23
84607;BME280;74838;47.984;7.842;2024-01-30T02:47:52;99896.84;;;5.83;72.81
84607;BME280;74838;47.984;7.842;2024-01-30T02:50:19;99905.09;;;5.95;71.08
84607;BME280;74838;47.984;7.842;2024-01-30T02:52:48;99915.19;;;6.06;70.81
84607;BME280;74838;47.984;7.842;2024-01-30T02:55:15;99916.63;;;6.08;70.74
84607;BME280;74838;47.984;7.842;2024-01-30T02:57:44;99911.91;;;6.04;71.66
84607;BME280;74838;47.984;7.842;2024-01-30T03:00:11;99908.00;;;6.00;71.61
84607;BME280;74838;47.984;7.842;2024-01-30T03:02:38;99916.94;;;5.99;73.11
84607;BME280;74838;47.984;7.842;2024-01-30T03:05:05;99911.75;;;5.91;73.84
84607;BME280;74838;47.984;7.842;2024-01-30T03:07:34;99919.13;;;5.81;74.56
84607;BME280;74838;47.984;7.842;2024-01-30T03:10:04;99901.84;;;5.64;74.38
84607;BME280;74838;47.984;7.842;2024-01-30T03:12:33;99917.50;;;5.51;74.48
84607;BME280;74838;47.984;7.842;2024-01-30T03:15:01;99916.97;;;5.41;75.75
84607;BME280;74838;47.984;7.842;2024-01-30T03:17:28;99931.84;;;5.34;76.23
84607;BME280;74838;47.984;7.842;2024-01-30T03:19:55;99923.31;;;5.33;76.55
84607;BME280;74838;47.984;7.842;2024-01-30T03:22:24;99929.03;;;5.36;77.07
84607;BME280;74838;47.984;7.842;2024-01-30T03:24:53;99936.13;;;5.35;76.86
84607;BME280;74838;47.984;7.842;2024-01-30T03:27:21;99933.94;;;5.39;76.52
84607;BME280;74838;47.984;7.842;2024-01-30T03:29:48;99938.06;;;5.41;76.23
84607;BME280;74838;47.984;7.842;2024-01-30T03:32:16;99926.78;;;5.47;74.85
84607;BME280;74838;47.984;7.842;2024-01-30T03:34:45;99933.69;;;5.48;75.66
84607;BME280;74838;47.984;7.842;2024-01-30T03:37:13;99938.97;;;5.48;75.46
84607;BME280;74838;47.984;7.842;2024-01-30T03:39:40;99912.59;;;5.48;75.36
84607;BME280;74838;47.984;7.842;2024-01-30T03:42:09;99934.16;;;5.52;76.04
84607;BME280;74838;47.984;7.842;2024-01-30T03:44:35;99938.56;;;5.51;76.50
84607;BME280;74838;47.984;7.842;2024-01-30T03:47:03;99933.69;;;5.48;77.02
84607;BME280;74838;47.984;7.842;2024-01-30T03:49:33;99930.50;;;5.38;77.44
84607;BME280;74838;47.984;7.842;2024-01-30T03:51:59;99932.59;;;5.29;77.71
84607;BME280;74838;47.984;7.842;2024-01-30T03:54:26;99939.50;;;5.30;77.40
84607;BME280;74838;47.984;7.842;2024-01-30T03:56:53;99937.41;;;5.25;77.86
84607;BME280;74838;47.984;7.842;2024-01-30T03:59:22;99940.22;;;5.24;77.83
84607;BME280;74838;47.984;7.842;2024-01-30T04:01:49;99936.59;;;5.25;77.80
84607;BME280;74838;47.984;7.842;2024-01-30T04:04:18;99935.13;;;5.22;78.25
84607;BME280;74838;47.984;7.842;2024-01-30T04:06:46;99935.22;;;5.29;79.31
84607;BME280;74838;47.984;7.842;2024-01-30T04:09:13;99933.97;;;5.25;78.81
84607;BME280;74838;47.984;7.842;2024-01-30T04:11:42;99932.13;;;5.25;79.89
84607;BME280;74838;47.984;7.842;2024-01-30T04:14:09;99930.03;;;5.21;78.89
84607;BME280;74838;47.984;7.842;2024-01-30T04:16:35;99926.75;;;5.19;78.86
84607;BME280;74838;47.984;7.842;2024-01-30T04:19:02;99903.34;;;5.09;79.27
84607;BME280;74838;47.984;7.842;2024-01-30T04:21:29;99923.31;;;5.18;78.24
84607;BME280;74838;47.984;7.842;2024-01-30T04:23:58;99910.59;;;5.22;78.71
84607;BME280;74838;47.984;7.842;2024-01-30T04:26:24;99898.31;;;5.43;76.88
84607;BME280;74838;47.984;7.842;2024-01-30T04:28:51;99896.78;;;5.48;76.80
84607;BME280;74838;47.984;7.842;2024-01-30T04:31:18;99889.03;;;5.61;75.77
84607;BME280;74838;47.984;7.842;2024-01-30T04:33:44;99906.28;;;5.92;75.27
84607;BME280;74838;47.984;7.842;2024-01-30T04:36:11;99904.50;;;6.14;74.03
84607;BME280;74838;47.984;7.842;2024-01-30T04:38:40;99899.81;;;6.30;74.42
84607;BME280;74838;47.984;7.842;2024-01-30T04:41:10;99902.88;;;6.54;71.66
84607;BME280;74838;47.984;7.842;2024-01-30T04:43:37;99900.78;;;6.98;70.08
84607;BME280;74838;47.984;7.842;2024-01-30T04:46:04;99899.69;;;7.13;68.33
84607;BME280;74838;47.984;7.842;2024-01-30T04:48:30;99895.38;;;7.39;66.45
84607;BME280;74838;47.984;7.842;2024-01-30T04:50:59;99898.78;;;7.67;66.67
84607;BME280;74838;47.984;7.842;2024-01-30T04:53:30;99897.59;;;7.76;65.38
84607;BME280;74838;47.984;7.842;2024-01-30T04:55:59;99905.41;;;7.96;64.13
84607;BME280;74838;47.984;7.842;2024-01-30T04:58:27;99908.91;;;8.03;64.20
84607;BME280;74838;47.984;7.842;2024-01-30T05:00:54;99901.38;;;8.07;64.68
84607;BME280;74838;47.984;7.842;2024-01-30T05:03:20;99886.16;;;8.15;62.90
84607;BME280;74838;47.984;7.842;2024-01-30T05:05:48;99912.88;;;8.33;62.28
84607;BME280;74838;47.984;7.842;2024-01-30T05:08:17;99910.25;;;8.46;62.37
84607;BME280;74838;47.984;7.842;2024-01-30T05:10:43;99911.06;;;8.53;62.46
84607;BME280;74838;47.984;7.842;2024-01-30T05:13:11;99916.59;;;8.58;62.69
84607;BME280;74838;47.984;7.842;2024-01-30T05:15:42;99908.03;;;8.56;62.92
84607;BME280;74838;47.984;7.842;2024-01-30T05:18:09;99910.25;;;8.65;63.29
84607;BME280;74838;47.984;7.842;2024-01-30T05:20:36;99921.31;;;8.68;62.78
84607;BME280;74838;47.984;7.842;2024-01-30T05:23:02;99919.84;;;8.66;61.99
84607;BME280;74838;47.984;7.842;2024-01-30T05:25:29;99925.97;;;8.67;62.79
84607;BME280;74838;47.984;7.842;2024-01-30T05:27:56;99921.06;;;8.70;60.91
84607;BME280;74838;47.984;7.842;2024-01-30T05:30:22;99917.63;;;8.82;62.17
84607;BME280;74838;47.984;7.842;2024-01-30T05:32:50;99924.16;;;8.93;60.25
84607;BME280;74838;47.984;7.842;2024-01-30T05:35:18;99926.81;;;8.93;60.02
84607;BME280;74838;47.984;7.842;2024-01-30T05:37:48;99915.38;;;8.99;60.19
84607;BME280;74838;47.984;7.842;2024-01-30T05:40:15;99913.75;;;9.04;58.72
84607;BME280;74838;47.984;7.842;2024-01-30T05:42:44;99926.38;;;9.15;58.93
84607;BME280;74838;47.984;7.842;2024-01-30T05:45:11;99926.19;;;9.10;59.09
84607;BME280;74838;47.984;7.842;2024-01-30T05:47:38;99924.16;;;9.06;59.02
84607;BME280;74838;47.984;7.842;2024-01-30T05:50:09;99926.38;;;9.02;60.49
84607;BME280;74838;47.984;7.842;2024-01-30T05:52:36;99910.50;;;8.83;59.46
84607;BME280;74838;47.984;7.842;2024-01-30T05:55:05;99927.63;;;8.93;60.17
84607;BME280;74838;47.984;7.842;2024-01-30T05:57:32;99932.31;;;8.85;60.42
84607;BME280;74838;47.984;7.842;2024-01-30T05:59:59;99935.78;;;8.85;60.89
84607;BME280;74838;47.984;7.842;2024-01-30T06:02:25;99940.66;;;8.75;62.01
84607;BME280;74838;47.984;7.842;2024-01-30T06:04:54;99939.44;;;8.59;62.00
84607;BME280;74838;47.984;7.842;2024-01-30T06:07:22;99940.59;;;8.50;62.02
84607;BME280;74838;47.984;7.842;2024-01-30T06:09:49;99938.59;;;8.52;63.15
84607;BME280;74838;47.984;7.842;2024-01-30T06:12:15;99946.34;;;8.60;61.44
84607;BME280;74838;47.984;7.842;2024-01-30T06:14:42;99924.31;;;8.46;65.52
84607;BME280;74838;47.984;7.842;2024-01-30T06:17:09;99939.81;;;8.56;64.48
84607;BME280;74838;47.984;7.842;2024-01-30T06:19:37;99950.84;;;8.66;62.38
84607;BME280;74838;47.984;7.842;2024-01-30T06:22:06;99953.72;;;8.70;63.27
84607;BME280;74838;47.984;7.842;2024-01-30T06:24:34;99949.63;;;8.74;62.67
84607;BME280;74838;47.984;7.842;2024-01-30T06:27:01;99952.28;;;8.74;63.07
84607;BME280;74838;47.984;7.842;2024-01-30T06:29:27;99952.09;;;8.82;61.91
84607;BME280;74838;47.984;7.842;2024-01-30T06:31:56;99952.50;;;8.92;61.52
84607;BME280;74838;47.984;7.842;2024-01-30T06:34:23;99961.47;;;8.91;61.96
84607;BME280;74838;47.984;7.842;2024-01-30T06:36:51;99967.56;;;8.92;61.62
84607;BME280;74838;47.984;7.842;2024-01-30T06:39:18;99965.75;;;8.92;61.78
84607;BME280;74838;47.984;7.842;2024-01-30T06:41:46;99968.38;;;8.99;62.16
84607;BME280;74838;47.984;7.842;2024-01-30T06:44:13;99949.22;;;9.03;63.07
84607;BME280;74838;47.984;7.842;2024-01-30T06:46:42;99948.63;;;9.01;63.32
84607;BME280;74838;47.984;7.842;2024-01-30T06:49:11;99942.69;;;9.12;61.15
84607;BME280;74838;47.984;7.842;2024-01-30T06:51:37;99954.94;;;9.26;61.70
84607;BME280;74838;47.984;7.842;2024-01-30T06:54:04;99953.72;;;9.22;61.57
84607;BME280;74838;47.984;7.842;2024-01-30T06:56:33;99953.09;;;9.26;61.44
84607;BME280;74838;47.984;7.842;2024-01-30T06:59:02;99961.06;;;9.33;60.74
84607;BME280;74838;47.984;7.842;2024-01-30T07:01:29;99956.16;;;9.36;60.76
84607;BME280;74838;47.984;7.842;2024-01-30T07:03:57;99959.00;;;9.35;60.66
84607;BME280;74838;47.984;7.842;2024-01-30T07:06:24;99955.13;;;9.44;60.49
84607;BME280;74838;47.984;7.842;2024-01-30T07:08:50;99960.63;;;9.49;60.48
84607;BME280;74838;47.984;7.842;2024-01-30T07:11:20;99967.97;;;9.53;60.36
84607;BME280;74838;47.984;7.842;2024-01-30T07:13:47;99965.53;;;9.51;61.39
84607;BME280;74838;47.984;7.842;2024-01-30T07:16:16;99967.13;;;9.59;60.77
84607;BME280;74838;47.984;7.842;2024-01-30T07:18:43;99945.50;;;9.43;60.60
84607;BME280;74838;47.984;7.842;2024-01-30T07:21:12;99970.19;;;9.56;62.54
84607;BME280;74838;47.984;7.842;2024-01-30T07:23:39;99975.09;;;9.59;60.42
84607;BME280;74838;47.984;7.842;2024-01-30T07:26:07;99965.13;;;9.48;60.84
84607;BME280;74838;47.984;7.842;2024-01-30T07:28:34;99960.03;;;9.40;60.49
84607;BME280;74838;47.984;7.842;2024-01-30T07:31:03;99972.25;;;9.48;60.45
84607;BME280;74838;47.984;7.842;2024-01-30T07:33:32;99975.75;;;9.48;61.13
84607;BME280;74838;47.984;7.842;2024-01-30T07:35:59;99959.63;;;9.37;60.67
84607;BME280;74838;47.984;7.842;2024-01-30T07:38:28;99984.91;;;9.46;61.47
84607;BME280;74838;47.984;7.842;2024-01-30T07:40:55;99989.59;;;9.44;61.39
84607;BME280;74838;47.984;7.842;2024-01-30T07:43:31;99985.94;;;9.45;60.99
84607;BME280;74838;47.984;7.842;2024-01-30T07:46:01;99985.09;;;9.44;61.23
84607;BME280;74838;47.984;7.842;2024-01-30T07:48:35;99986.56;;;9.40;61.42
84607;BME280;74838;47.984;7.842;2024-01-30T07:51:01;99979.84;;;9.38;61.60
84607;BME280;74838;47.984;7.842;2024-01-30T07:53:31;99992.88;;;9.39;65.60
84607;BME280;74838;47.984;7.842;2024-01-30T07:55:58;99991.66;;;9.42;61.63
84607;BME280;74838;47.984;7.842;2024-01-30T07:58:25;99996.56;;;9.45;61.29
84607;BME280;74838;47.984;7.842;2024-01-30T08:00:52;99987.16;;;9.49;61.91
84607;BME280;74838;47.984;7.842;2024-01-30T08:03:21;99983.91;;;9.53;61.34
84607;BME280;74838;47.984;7.842;2024-01-30T08:05:49;99985.09;;;9.57;60.90
84607;BME280;74838;47.984;7.842;2024-01-30T08:08:16;99991.19;;;9.77;63.22
84607;BME280;74838;47.984;7.842;2024-01-30T08:10:43;99973.22;;;9.72;61.44
84607;BME280;74838;47.984;7.842;2024-01-30T08:13:09;99984.66;;;9.92;60.55
84607;BME280;74838;47.984;7.842;2024-01-30T08:15:36;99974.00;;;9.98;60.13
84607;BME280;74838;47.984;7.842;2024-01-30T08:18:05;99983.56;;;10.06;59.46
84607;BME280;74838;47.984;7.842;2024-01-30T08:20:32;99980.09;;;10.12;59.59
84607;BME280;74838;47.984;7.842;2024-01-30T08:23:00;99978.03;;;10.14;59.67
84607;BME280;74838;47.984;7.842;2024-01-30T08:25:27;99956.63;;;10.02;60.52
84607;BME280;74838;47.984;7.842;2024-01-30T08:27:53;99972.47;;;10.22;60.34
84607;BME280;74838;47.984;7.842;2024-01-30T08:30:20;99970.19;;;10.32;59.77
84607;BME280;74838;47.984;7.842;2024-01-30T08:32:47;99975.84;;;10.41;58.65
84607;BME280;74838;47.984;7.842;2024-01-30T08:35:16;99939.94;;;10.33;58.88
84607;BME280;74838;47.984;7.842;2024-01-30T08:37:42;99977.41;;;10.55;58.36
84607;BME280;74838;47.984;7.842;2024-01-30T08:40:15;99976.56;;;10.61;58.19
84607;BME280;74838;47.984;7.842;2024-01-30T08:42:44;99972.44;;;10.65;58.61
84607;BME280;74838;47.984;7.842;2024-01-30T08:45:14;99970.19;;;10.69;58.60
84607;BME280;74838;47.984;7.842;2024-01-30T08:47:40;99973.81;;;10.74;57.94
84607;BME280;74838;47.984;7.842;2024-01-30T08:50:34;99964.22;;;10.73;58.93
84607;BME280;74838;47.984;7.842;2024-01-30T08:53:00;99963.34;;;10.79;57.57
84607;BME280;74838;47.984;7.842;2024-01-30T08:55:29;99966.19;;;10.84;57.25
84607;BME280;74838;47.984;7.842;2024-01-30T08:57:56;99951.13;;;10.78;56.80
84607;BME280;74838;47.984;7.842;2024-01-30T09:00:26;99971.84;;;10.94;57.85
84607;BME280;74838;47.984;7.842;2024-01-30T09:02:53;99974.28;;;10.95;57.51
84607;BME280;74838;47.984;7.842;2024-01-30T09:05:19;99967.13;;;10.96;57.50
84607;BME280;74838;47.984;7.842;2024-01-30T09:07:52;99970.13;;;11.06;57.27
84607;BME280;74838;47.984;7.842;2024-01-30T09:10:24;99968.88;;;11.08;56.49
84607;BME280;74838;47.984;7.842;2024-01-30T09:12:54;99968.00;;;11.14;56.39
84607;BME280;74838;47.984;7.842;2024-01-30T09:15:26;99965.50;;;11.19;56.48
84607;BME280;74838;47.984;7.842;2024-01-30T09:17:56;99967.06;;;11.26;57.66
84607;BME280;74838;47.984;7.842;2024-01-30T09:20:25;99974.25;;;11.26;56.89
84607;BME280;74838;47.984;7.842;2024-01-30T09:23:05;99965.47;;;11.25;56.75
84607;BME280;74838;47.984;7.842;2024-01-30T09:25:32;99973.19;;;11.33;55.85
84607;BME280;74838;47.984;7.842;2024-01-30T09:28:08;99971.50;;;11.39;55.89
84607;BME280;74838;47.984;7.842;2024-01-30T09:30:35;99970.22;;;11.41;55.23
84607;BME280;74838;47.984;7.842;2024-01-30T09:33:02;99972.28;;;11.46;55.01
84607;BME280;74838;47.984;7.842;2024-01-30T09:35:28;99981.81;;;11.53;55.27
84607;BME280;74838;47.984;7.842;2024-01-30T09:37:59;99986.72;;;11.56;55.79
84607;BME280;74838;47.984;7.842;2024-01-30T09:40:28;99986.28;;;11.59;54.99
84607;BME280;74838;47.984;7.842;2024-01-30T09:42:58;99984.22;;;11.61;56.39
84607;BME280;74838;47.984;7.842;2024-01-30T09:45:27;99981.91;;;11.64;55.59
84607;BME280;74838;47.984;7.842;2024-01-30T09:47:54;99993.97;;;11.67;57.00
84607;BME280;74838;47.984;7.842;2024-01-30T09:50:20;99979.47;;;11.63;56.63
84607;BME280;74838;47.984;7.842;2024-01-30T09:52:47;99982.72;;;11.65;54.44
84607;BME280;74838;47.984;7.842;2024-01-30T09:55:23;100003.75;;;11.73;54.39
84607;BME280;74838;47.984;7.842;2024-01-30T09:57:50;99995.38;;;11.69;57.60
84607;BME280;74838;47.984;7.842;2024-01-30T10:00:17;100003.91;;;11.78;55.00
84607;BME280;74838;47.984;7.842;2024-01-30T10:02:45;99988.16;;;11.76;53.91
84607;BME280;74838;47.984;7.842;2024-01-30T10:05:15;99998.97;;;11.81;58.40
84607;BME280;74838;47.984;7.842;2024-01-30T10:07:50;99992.06;;;11.74;56.26
84607;BME280;74838;47.984;7.842;2024-01-30T10:10:18;99992.50;;;11.89;58.06
84607;BME280;74838;47.984;7.842;2024-01-30T10:12:45;100001.72;;;11.93;54.66
84607;BME280;74838;47.984;7.842;2024-01-30T10:15:13;99976.25;;;11.79;60.04
84607;BME280;74838;47.984;7.842;2024-01-30T10:17:40;99981.63;;;11.90;54.93
84607;BME280;74838;47.984;7.842;2024-01-30T10:20:10;99986.09;;;11.96;58.92
84607;BME280;74838;47.984;7.842;2024-01-30T10:22:36;99988.16;;;11.94;56.23
84607;BME280;74838;47.984;7.842;2024-01-30T10:25:06;99987.81;;;11.91;56.85
84607;BME280;74838;47.984;7.842;2024-01-30T10:27:34;99982.75;;;12.00;54.14
84607;BME280;74838;47.984;7.842;2024-01-30T10:30:07;99983.94;;;12.04;54.75
84607;BME280;74838;47.984;7.842;2024-01-30T10:32:34;99961.53;;;11.94;53.64
84607;BME280;74838;47.984;7.842;2024-01-30T10:35:01;99960.69;;;11.94;53.67
84607;BME280;74838;47.984;7.842;2024-01-30T10:37:30;99988.38;;;12.10;54.00
84607;BME280;74838;47.984;7.842;2024-01-30T10:40:15;99986.28;;;12.12;54.42
84607;BME280;74838;47.984;7.842;2024-01-30T10:42:43;99980.16;;;12.12;54.34
84607;BME280;74838;47.984;7.842;2024-01-30T10:45:11;99972.09;;;12.18;55.11
84607;BME280;74838;47.984;7.842;2024-01-30T10:47:50;99969.44;;;12.18;53.75
84607;BME280;74838;47.984;7.842;2024-01-30T10:50:17;99965.44;;;12.09;52.83
84607;BME280;74838;47.984;7.842;2024-01-30T10:52:46;99978.75;;;12.27;51.05
84607;BME280;74838;47.984;7.842;2024-01-30T10:55:13;99957.06;;;12.24;50.52
84607;BME280;74838;47.984;7.842;2024-01-30T10:57:42;99975.78;;;12.35;51.11
84607;BME280;74838;47.984;7.842;2024-01-30T11:00:10;99975.34;;;12.38;49.75
84607;BME280;74838;47.984;7.842;2024-01-30T11:02:39;99963.84;;;12.38;50.46
84607;BME280;74838;47.984;7.842;2024-01-30T11:05:07;99968.06;;;12.45;48.15
84607;BME280;74838;47.984;7.842;2024-01-30T11:07:35;99970.28;;;12.48;49.11
84607;BME280;74838;47.984;7.842;2024-01-30T11:10:04;99969.28;;;12.60;49.22
84607;BME280;74838;47.984;7.842;2024-01-30T11:12:40;99944.00;;;12.63;47.78
84607;BME280;74838;47.984;7.842;2024-01-30T11:15:10;99968.13;;;12.85;47.91
84607;BME280;74838;47.984;7.842;2024-01-30T11:17:44;99973.84;;;13.00;46.19
84607;BME280;74838;47.984;7.842;2024-01-30T11:20:15;99965.84;;;13.00;46.57
84607;BME280;74838;47.984;7.842;2024-01-30T11:22:45;99920.97;;;12.80;47.50
84607;BME280;74838;47.984;7.842;2024-01-30T11:25:16;99964.03;;;13.12;46.36
84607;BME280;74838;47.984;7.842;2024-01-30T11:27:44;99933.25;;;13.10;44.41
84607;BME280;74838;47.984;7.842;2024-01-30T11:30:20;99955.44;;;13.33;45.87
84607;BME280;74838;47.984;7.842;2024-01-30T11:32:58;99957.78;;;13.41;45.39
84607;BME280;74838;47.984;7.842;2024-01-30T11:35:25;99956.72;;;13.42;45.48
84607;BME280;74838;47.984;7.842;2024-01-30T11:37:52;99960.56;;;13.46;46.28
84607;BME280;74838;47.984;7.842;2024-01-30T11:40:24;99954.84;;;13.42;45.86
84607;BME280;74838;47.984;7.842;2024-01-30T11:42:55;99926.06;;;13.33;45.37
84607;BME280;74838;47.984;7.842;2024-01-30T11:45:21;99941.28;;;13.44;45.78
84607;BME280;74838;47.984;7.842;2024-01-30T11:47:48;99930.72;;;13.49;46.29
84607;BME280;74838;47.984;7.842;2024-01-30T11:50:17;99945.25;;;13.53;45.50
84607;BME280;74838;47.984;7.842;2024-01-30T11:52:44;99938.38;;;13.57;48.03
84607;BME280;74838;47.984;7.842;2024-01-30T11:55:12;99934.91;;;13.45;46.86
84607;BME280;74838;47.984;7.842;2024-01-30T11:57:41;99930.38;;;13.57;47.59
84607;BME280;74838;47.984;7.842;2024-01-30T12:00:14;99909.34;;;13.49;47.13
84607;BME280;74838;47.984;7.842;2024-01-30T12:02:41;99933.72;;;13.64;47.11
84607;BME280;74838;47.984;7.842;2024-01-30T12:05:08;99926.50;;;13.64;47.01
84607;BME280;74838;47.984;7.842;2024-01-30T12:07:36;99935.13;;;13.66;47.85
84607;BME280;74838;47.984;7.842;2024-01-30T12:10:05;99928.50;;;13.68;47.80
84607;BME280;74838;47.984;7.842;2024-01-30T12:12:44;99929.19;;;13.75;47.26
84607;BME280;74838;47.984;7.842;2024-01-30T12:15:12;99931.50;;;13.72;47.74
84607;BME280;74838;47.984;7.842;2024-01-30T12:17:39;99935.47;;;13.69;48.60
84607;BME280;74838;47.984;7.842;2024-01-30T12:20:08;99918.94;;;13.72;49.14
84607;BME280;74838;47.984;7.842;2024-01-30T12:22:40;99930.72;;;13.71;50.17
84607;BME280;74838;47.984;7.842;2024-01-30T12:25:08;99926.97;;;13.72;50.05
84607;BME280;74838;47.984;7.842;2024-01-30T12:27:37;99924.63;;;13.76;50.89
84607;BME280;74838;47.984;7.842;2024-01-30T12:30:10;99908.16;;;13.67;51.38
84607;BME280;74838;47.984;7.842;2024-01-30T12:32:40;99932.19;;;13.79;52.81
84607;BME280;74838;47.984;7.842;2024-01-30T12:35:08;99937.53;;;13.79;51.79
84607;BME280;74838;47.984;7.842;2024-01-30T12:37:35;99931.84;;;13.75;52.08
84607;BME280;74838;47.984;7.842;2024-01-30T12:40:08;99919.34;;;13.65;52.19
84607;BME280;74838;47.984;7.842;2024-01-30T12:42:46;99934.53;;;13.75;51.55
84607;BME280;74838;47.984;7.842;2024-01-30T12:45:16;99926.63;;;13.80;51.93
84607;BME280;74838;47.984;7.842;2024-01-30T12:47:47;99913.88;;;13.60;53.43
84607;BME280;74838;47.984;7.842;2024-01-30T12:50:14;99925.13;;;13.73;52.80
84607;BME280;74838;47.984;7.842;2024-01-30T12:52:43;99919.78;;;13.73;52.94
84607;BME280;74838;47.984;7.842;2024-01-30T12:55:11;99926.50;;;13.75;52.63
84607;BME280;74838;47.984;7.842;2024-01-30T12:57:38;99915.00;;;13.75;52.32
84607;BME280;74838;47.984;7.842;2024-01-30T13:00:06;99914.66;;;13.71;53.45
84607;BME280;74838;47.984;7.842;2024-01-30T13:02:35;99898.06;;;13.69;53.49
84607;BME280;74838;47.984;7.842;2024-01-30T13:05:02;99915.69;;;13.82;53.21
84607;BME280;74838;47.984;7.842;2024-01-30T13:07:29;99905.81;;;13.82;51.67
84607;BME280;74838;47.984;7.842;2024-01-30T13:09:56;99911.59;;;13.91;52.31
84607;BME280;74838;47.984;7.842;2024-01-30T13:12:27;99905.91;;;13.87;52.29